Airfield :
LOGIN :

Register | Disclaimer

   EN    FR    IT 

 










Legend :    VFR   Marginal VFR   IFR   Intensive IFR   Very Intensive IFR
Visi :
Ceiling :
>= 8 km
>= 3000ft
5 to 8 km
1000 to 3000 ft
1500m to 5 km
500 to 1000 ft
800 to 1500m
200 to 500 ft
< 800m
< 200 ft
Symbols :   Thunderstorms  Fog  Heavy snow  Heavy precipitations  Wind > 20 kt
SIGMETs :     Misc.  Thunderstorms  Icing  Turbulence  Mountain Waves  Volcanic Ashes






- Airport Elevation : -15 ft
- IATA code : RTM


EHRD - Rotterdam Zestienhoven

CURRENT METAR :
  • 281055Z AUTO 21006KT 5000 OVC004 10/10 Q1009 BECMG OVC008

EXPIRED METARs :
  • 281025Z AUTO 22008KT 190V250 5000 OVC005 10/10 Q1009 BECMG OVC008
  • 280955Z AUTO 22008KT 180V260 5000 BKN005 OVC006 10/10 Q1009 BECMG OVC008
  • 280925Z AUTO 22007KT 190V250 6000 OVC004 10/10 Q1009 BECMG 4500 BKN005
  • 280855Z AUTO 22006KT 3600 BR BKN004 OVC005 10/10 Q1009 BECMG 4500 BKN005
  • 280825Z AUTO 20005KT 160V230 2900 BR BKN003 OVC004 09/09 Q1009 BECMG 4500 BR BKN004

TAF TAF EHRD
Valid from the 28 at 06:00 until the 29 at 12:00 UTC


280518Z 2806/2912 20007KT 6000 -RADZ BKN004
TEMPO 2806/2812 2500 BR -DZ BKN003
BECMG 2812/2815 9000 NSW SCT004 BKN006
TEMPO 2812/2818 SCT006 BKN030
BECMG 2818/2821 VRB02KT 4000 BR
PROB30 2821/2909 0900 FG BKN002
BECMG 2907/2910 31005KT 9000 NSW SCT025



MET'MAP, your aeronautical weather chart ! - Copyright ORBIFLY December 2007 - Disclaimer

ORBIFLY MET'MAP TEAM :

Programming & Development : Alexandra Zaïnal
Original concept : Baudouin d'Aumeries
Technical & hardware support : Manuel Goepfert
Assistance : Marc-Olivier Méhu




SOURCES & CREDITS :

   NOAA